createdAt,value
2019-03-19T00:00:39.230Z,1017.10
2019-03-19T00:01:39.246Z,1017.08
2019-03-19T00:02:39.178Z,1017.06
2019-03-19T00:03:39.153Z,1017.09
2019-03-19T00:04:39.123Z,1017.08
2019-03-19T00:05:39.098Z,1017.08
2019-03-19T00:06:39.069Z,1017.11
2019-03-19T00:07:39.077Z,1017.10
2019-03-19T00:08:39.016Z,1017.10
2019-03-19T00:09:39.041Z,1017.12
2019-03-19T00:10:38.998Z,1017.11
2019-03-19T00:11:39.010Z,1017.10
2019-03-19T00:12:38.937Z,1017.10
2019-03-19T00:13:38.881Z,1017.08
2019-03-19T00:14:38.957Z,1017.06
2019-03-19T00:15:38.850Z,1017.08
2019-03-19T00:16:38.803Z,1017.10
2019-03-19T00:17:38.784Z,1017.09
2019-03-19T00:18:38.757Z,1017.07
2019-03-19T00:19:39.340Z,1017.06
2019-03-19T00:20:38.722Z,1017.05
2019-03-19T00:21:38.670Z,1017.03
2019-03-19T00:22:38.643Z,1017.06
2019-03-19T00:23:38.618Z,1017.10
2019-03-19T00:24:38.627Z,1017.11
2019-03-19T00:25:38.567Z,1017.11
2019-03-19T00:26:38.539Z,1017.11
2019-03-19T00:27:38.513Z,1017.13
2019-03-19T00:28:39.147Z,1017.15
2019-03-19T00:29:38.456Z,1017.13
2019-03-19T00:30:38.431Z,1017.11
2019-03-19T00:31:38.407Z,1017.13
2019-03-19T00:32:38.375Z,1017.17
2019-03-19T00:33:38.353Z,1017.14
2019-03-19T00:34:38.327Z,1017.20
2019-03-19T00:35:38.295Z,1017.19
2019-03-19T00:36:38.268Z,1017.21
2019-03-19T00:37:38.245Z,1017.23
2019-03-19T00:38:38.221Z,1017.27
2019-03-19T00:39:38.192Z,1017.25
2019-03-19T00:40:38.161Z,1017.26
2019-03-19T00:41:38.140Z,1017.26
2019-03-19T00:42:38.108Z,1017.21
2019-03-19T00:43:38.080Z,1017.19
2019-03-19T00:44:38.054Z,1017.22
2019-03-19T00:45:38.025Z,1017.20
2019-03-19T00:46:37.999Z,1017.20
2019-03-19T00:47:37.972Z,1017.23
2019-03-19T00:48:37.948Z,1017.24
2019-03-19T00:49:38.411Z,1017.28
2019-03-19T00:50:37.896Z,1017.29
2019-03-19T00:51:37.869Z,1017.25
2019-03-19T00:52:37.860Z,1017.30
2019-03-19T00:53:37.812Z,1017.30
2019-03-19T00:54:37.784Z,1017.29
2019-03-19T00:55:40.983Z,1017.32
2019-03-19T00:56:37.731Z,1017.37
2019-03-19T00:57:37.709Z,1017.34
2019-03-19T00:58:37.681Z,1017.35
2019-03-19T00:59:37.654Z,1017.34
2019-03-19T01:00:37.640Z,1017.33
2019-03-19T01:01:38.810Z,1017.33
2019-03-19T01:02:37.571Z,1017.30
2019-03-19T01:03:37.543Z,1017.33
2019-03-19T01:04:37.518Z,1017.36
2019-03-19T01:05:37.500Z,1017.40
2019-03-19T01:06:37.463Z,1017.42
2019-03-19T01:07:37.437Z,1017.44
2019-03-19T01:08:37.415Z,1017.40
2019-03-19T01:09:37.382Z,1017.43
2019-03-19T01:10:37.353Z,1017.41
2019-03-19T01:11:37.365Z,1017.38
2019-03-19T01:12:37.302Z,1017.42
2019-03-19T01:13:37.276Z,1017.45
2019-03-19T01:14:37.282Z,1017.46
2019-03-19T01:15:37.224Z,1017.51
2019-03-19T01:16:37.193Z,1017.54
2019-03-19T01:17:37.169Z,1017.55
2019-03-19T01:18:37.157Z,1017.59
2019-03-19T01:19:37.128Z,1017.58
2019-03-19T01:20:37.084Z,1017.61
2019-03-19T01:21:37.121Z,1017.56
2019-03-19T01:22:37.034Z,1017.58
2019-03-19T01:23:37.030Z,1017.54
2019-03-19T01:24:36.995Z,1017.57
2019-03-19T01:25:36.974Z,1017.56
2019-03-19T01:26:36.923Z,1017.55
2019-03-19T01:27:36.896Z,1017.55
2019-03-19T01:28:36.867Z,1017.55
2019-03-19T01:29:36.858Z,1017.54
2019-03-19T01:30:36.813Z,1017.57
2019-03-19T01:31:36.801Z,1017.58
2019-03-19T01:32:36.764Z,1017.56
2019-03-19T01:33:36.733Z,1017.54
2019-03-19T01:34:36.704Z,1017.55
2019-03-19T01:35:36.684Z,1017.61
2019-03-19T01:36:36.651Z,1017.61
2019-03-19T01:37:36.626Z,1017.58
2019-03-19T01:38:36.595Z,1017.60
2019-03-19T01:39:36.570Z,1017.61
2019-03-19T01:40:36.541Z,1017.62
2019-03-19T01:41:36.513Z,1017.58
2019-03-19T01:42:36.492Z,1017.56
2019-03-19T01:43:36.461Z,1017.50
2019-03-19T01:44:36.432Z,1017.52
2019-03-19T01:45:36.406Z,1017.54
2019-03-19T01:46:36.378Z,1017.51
2019-03-19T01:47:36.356Z,1017.49
2019-03-19T01:48:36.330Z,1017.54
2019-03-19T01:49:36.305Z,1017.46
2019-03-19T01:50:36.269Z,1017.51
2019-03-19T01:51:36.244Z,1017.49
2019-03-19T01:52:36.216Z,1017.58
2019-03-19T01:53:36.185Z,1017.59
2019-03-19T01:54:36.164Z,1017.55
2019-03-19T01:55:36.131Z,1017.60
2019-03-19T01:56:36.110Z,1017.59
2019-03-19T01:57:36.084Z,1017.58
2019-03-19T01:58:36.067Z,1017.61
2019-03-19T01:59:36.026Z,1017.61
2019-03-19T02:00:36.023Z,1017.63
2019-03-19T02:01:36.055Z,1017.60
2019-03-19T02:02:35.944Z,1017.63
2019-03-19T02:03:35.916Z,1017.60
2019-03-19T02:04:35.921Z,1017.59
2019-03-19T02:05:35.857Z,1017.61
2019-03-19T02:06:35.831Z,1017.61
2019-03-19T02:07:35.805Z,1017.61
2019-03-19T02:08:35.821Z,1017.59
2019-03-19T02:09:35.749Z,1017.66
2019-03-19T02:10:35.721Z,1017.67
2019-03-19T02:11:38.236Z,1017.64
2019-03-19T02:12:35.668Z,1017.67
2019-03-19T02:13:35.647Z,1017.67
2019-03-19T02:14:35.613Z,1017.65
2019-03-19T02:15:35.599Z,1017.66
2019-03-19T02:16:36.316Z,1017.68
2019-03-19T02:17:35.545Z,1017.66
2019-03-19T02:18:35.506Z,1017.72
2019-03-19T02:19:35.478Z,1017.69
2019-03-19T02:20:35.459Z,1017.72
2019-03-19T02:21:35.423Z,1017.72
2019-03-19T02:22:35.414Z,1017.72
2019-03-19T02:23:35.364Z,1017.74
2019-03-19T02:24:35.340Z,1017.78
2019-03-19T02:25:35.316Z,1017.77
2019-03-19T02:26:35.285Z,1017.80
2019-03-19T02:27:35.260Z,1017.78
2019-03-19T02:28:35.277Z,1017.77
2019-03-19T02:29:35.206Z,1017.80
2019-03-19T02:30:35.193Z,1017.79
2019-03-19T02:31:35.161Z,1017.79
2019-03-19T02:32:35.126Z,1017.75
2019-03-19T02:33:35.100Z,1017.77
2019-03-19T02:34:35.075Z,1017.78
2019-03-19T02:35:35.045Z,1017.81
2019-03-19T02:36:35.015Z,1017.84
2019-03-19T02:37:34.987Z,1017.83
2019-03-19T02:38:34.980Z,1017.90
2019-03-19T02:39:34.934Z,1017.93
2019-03-19T02:40:34.905Z,1017.93
2019-03-19T02:41:34.887Z,1017.97
2019-03-19T02:42:34.854Z,1017.96
2019-03-19T02:43:34.825Z,1018.02
2019-03-19T02:44:34.798Z,1018.02
2019-03-19T02:45:34.768Z,1018.06
2019-03-19T02:46:34.743Z,1018.04
2019-03-19T02:47:34.717Z,1018.06
2019-03-19T02:48:34.696Z,1018.08
2019-03-19T02:49:34.658Z,1018.11
2019-03-19T02:50:34.735Z,1018.13
2019-03-19T02:51:34.633Z,1018.13
2019-03-19T02:52:34.576Z,1018.12
2019-03-19T02:53:34.550Z,1018.11
2019-03-19T02:54:34.527Z,1018.15
2019-03-19T02:55:34.499Z,1018.09
2019-03-19T02:56:34.469Z,1018.08
2019-03-19T02:57:34.443Z,1018.14
2019-03-19T02:58:34.414Z,1018.16
2019-03-19T02:59:34.386Z,1018.17
2019-03-19T03:00:34.358Z,1018.22
2019-03-19T03:01:34.328Z,1018.22
2019-03-19T03:02:34.311Z,1018.24
2019-03-19T03:03:34.349Z,1018.25
2019-03-19T03:04:34.274Z,1018.29
2019-03-19T03:05:34.269Z,1018.30
2019-03-19T03:06:34.214Z,1018.34
2019-03-19T03:07:34.181Z,1018.31
2019-03-19T03:08:34.140Z,1018.35
2019-03-19T03:09:34.113Z,1018.32
2019-03-19T03:10:34.093Z,1018.31
2019-03-19T03:11:34.066Z,1018.31
2019-03-19T03:12:34.033Z,1018.28
2019-03-19T03:13:34.008Z,1018.26
2019-03-19T03:14:33.974Z,1018.26
2019-03-19T03:15:33.954Z,1018.30
2019-03-19T03:16:33.921Z,1018.29
2019-03-19T03:17:34.607Z,1018.32
2019-03-19T03:18:33.874Z,1018.30
2019-03-19T03:19:33.865Z,1018.30
2019-03-19T03:20:33.846Z,1018.30
2019-03-19T03:21:34.809Z,1018.29
2019-03-19T03:22:33.753Z,1018.29
2019-03-19T03:23:33.750Z,1018.33
2019-03-19T03:24:33.728Z,1018.33
2019-03-19T03:25:33.702Z,1018.29
2019-03-19T03:26:46.834Z,1018.27
2019-03-19T03:27:33.636Z,1018.24
2019-03-19T03:28:33.616Z,1018.30
2019-03-19T03:29:33.561Z,1018.26
2019-03-19T03:30:33.594Z,1018.28
2019-03-19T03:31:33.507Z,1018.29
2019-03-19T03:32:33.480Z,1018.27
2019-03-19T03:33:33.454Z,1018.27
2019-03-19T03:34:33.424Z,1018.37
2019-03-19T03:35:33.415Z,1018.25
2019-03-19T03:36:33.370Z,1018.27
2019-03-19T03:37:33.342Z,1018.25
2019-03-19T03:38:33.315Z,1018.25
2019-03-19T03:39:33.289Z,1018.24
2019-03-19T03:40:33.279Z,1018.24
2019-03-19T03:41:33.234Z,1018.29
2019-03-19T03:42:33.235Z,1018.27
2019-03-19T03:43:33.221Z,1018.28
2019-03-19T03:44:33.151Z,1018.30
2019-03-19T03:45:34.007Z,1018.33
2019-03-19T03:46:33.099Z,1018.34
2019-03-19T03:47:33.075Z,1018.36
2019-03-19T03:48:33.042Z,1018.43
2019-03-19T03:49:33.015Z,1018.42
2019-03-19T03:50:32.985Z,1018.47
2019-03-19T03:51:32.958Z,1018.45
2019-03-19T03:52:32.932Z,1018.44
2019-03-19T03:53:32.911Z,1018.45
2019-03-19T03:54:32.896Z,1018.41
2019-03-19T03:55:32.846Z,1018.40
2019-03-19T03:56:32.822Z,1018.42
2019-03-19T03:57:32.791Z,1018.39
2019-03-19T03:58:32.763Z,1018.41
2019-03-19T03:59:32.734Z,1018.40
2019-03-19T04:00:32.708Z,1018.43
2019-03-19T04:01:32.679Z,1018.44
2019-03-19T04:02:32.652Z,1018.41
2019-03-19T04:03:32.625Z,1018.46
2019-03-19T04:04:32.594Z,1018.46
2019-03-19T04:05:32.569Z,1018.49
2019-03-19T04:06:32.542Z,1018.49
2019-03-19T04:07:32.512Z,1018.53
2019-03-19T04:08:32.485Z,1018.57
2019-03-19T04:09:32.456Z,1018.60
2019-03-19T04:10:32.428Z,1018.63
2019-03-19T04:11:32.403Z,1018.63
2019-03-19T04:12:32.377Z,1018.68
2019-03-19T04:13:32.344Z,1018.71
2019-03-19T04:14:32.319Z,1018.74
2019-03-19T04:15:32.286Z,1018.76
2019-03-19T04:16:32.264Z,1018.79
2019-03-19T04:17:32.240Z,1018.83
2019-03-19T04:18:32.990Z,1018.82
2019-03-19T04:19:32.193Z,1018.79
2019-03-19T04:20:32.213Z,1018.80
2019-03-19T04:21:32.126Z,1018.75
2019-03-19T04:22:32.094Z,1018.74
2019-03-19T04:23:32.069Z,1018.72
2019-03-19T04:24:32.043Z,1018.71
2019-03-19T04:25:32.009Z,1018.72
2019-03-19T04:26:31.983Z,1018.72
2019-03-19T04:27:31.953Z,1018.72
2019-03-19T04:28:31.946Z,1018.78
2019-03-19T04:29:31.913Z,1018.74
2019-03-19T04:30:31.870Z,1018.74
2019-03-19T04:31:31.842Z,1018.77
2019-03-19T04:32:31.812Z,1018.77
2019-03-19T04:33:31.787Z,1018.84
2019-03-19T04:34:31.760Z,1018.79
2019-03-19T04:35:31.730Z,1018.81
2019-03-19T04:36:31.700Z,1018.85
2019-03-19T04:37:31.672Z,1018.91
2019-03-19T04:38:31.649Z,1018.88
2019-03-19T04:39:31.616Z,1018.90
2019-03-19T04:40:31.589Z,1018.91
2019-03-19T04:41:31.563Z,1018.94
2019-03-19T04:42:31.531Z,1018.94
2019-03-19T04:43:31.503Z,1018.91
2019-03-19T04:44:31.512Z,1018.91
2019-03-19T04:45:31.455Z,1018.91
2019-03-19T04:46:31.420Z,1018.93
2019-03-19T04:47:31.391Z,1018.90
2019-03-19T04:48:31.698Z,1018.92
2019-03-19T04:49:31.338Z,1018.97
2019-03-19T04:50:31.307Z,1018.97
2019-03-19T04:51:31.275Z,1019.04
2019-03-19T04:52:31.257Z,1019.01
2019-03-19T04:53:31.296Z,1019.01
2019-03-19T04:54:31.197Z,1019.03
2019-03-19T04:55:31.166Z,1019.04
2019-03-19T04:56:31.138Z,1019.05
2019-03-19T04:57:31.114Z,1019.08
2019-03-19T04:58:31.079Z,1019.04
2019-03-19T04:59:31.056Z,1019.06
2019-03-19T05:00:31.023Z,1019.09
2019-03-19T05:01:31.008Z,1019.03
2019-03-19T05:02:30.973Z,1019.08
2019-03-19T05:03:30.939Z,1019.06
2019-03-19T05:04:30.910Z,1019.10
2019-03-19T05:05:30.891Z,1019.09
2019-03-19T05:06:30.864Z,1019.06
2019-03-19T05:07:30.879Z,1019.05
2019-03-19T05:08:30.798Z,1019.03
2019-03-19T05:09:30.770Z,1019.06
2019-03-19T05:10:30.743Z,1019.07
2019-03-19T05:11:30.714Z,1019.11
2019-03-19T05:12:30.684Z,1019.07
2019-03-19T05:13:30.658Z,1019.07
2019-03-19T05:14:30.631Z,1019.05
2019-03-19T05:15:30.606Z,1019.03
2019-03-19T05:16:30.574Z,1019.01
2019-03-19T05:17:30.548Z,1019.01
2019-03-19T05:18:31.518Z,1019.02
2019-03-19T05:19:30.488Z,1019.06
2019-03-19T05:20:30.459Z,1019.05
2019-03-19T05:21:30.456Z,1019.08
2019-03-19T05:22:31.405Z,1019.09
2019-03-19T05:23:30.376Z,1019.08
2019-03-19T05:24:30.500Z,1019.13
2019-03-19T05:25:30.323Z,1019.18
2019-03-19T05:26:31.015Z,1019.23
2019-03-19T05:27:37.272Z,1019.25
2019-03-19T05:28:30.241Z,1019.31
2019-03-19T05:29:30.205Z,1019.30
2019-03-19T05:30:30.174Z,1019.30
2019-03-19T05:31:30.145Z,1019.33
2019-03-19T05:32:30.124Z,1019.35
2019-03-19T05:33:30.087Z,1019.38
2019-03-19T05:34:30.123Z,1019.34
2019-03-19T05:35:30.031Z,1019.37
2019-03-19T05:36:30.011Z,1019.38
2019-03-19T05:37:29.974Z,1019.38
2019-03-19T05:38:30.003Z,1019.36
2019-03-19T05:39:29.918Z,1019.40
2019-03-19T05:40:29.889Z,1019.36
2019-03-19T05:41:29.865Z,1019.34
2019-03-19T05:42:29.846Z,1019.37
2019-03-19T05:43:29.802Z,1019.35
2019-03-19T05:44:29.773Z,1019.38
2019-03-19T05:45:29.745Z,1019.35
2019-03-19T05:46:29.718Z,1019.35
2019-03-19T05:47:36.962Z,1019.40
2019-03-19T05:48:29.665Z,1019.40
2019-03-19T05:49:29.631Z,1019.45
2019-03-19T05:50:29.605Z,1019.47
2019-03-19T05:51:29.581Z,1019.41
2019-03-19T05:52:29.547Z,1019.42
2019-03-19T05:53:29.520Z,1019.43
2019-03-19T05:54:29.510Z,1019.48
2019-03-19T05:55:29.460Z,1019.47
2019-03-19T05:56:29.433Z,1019.51
2019-03-19T05:57:29.404Z,1019.53
2019-03-19T05:58:29.381Z,1019.54
2019-03-19T05:59:29.348Z,1019.55
2019-03-19T06:00:29.324Z,1019.55
2019-03-19T06:01:29.297Z,1019.57
2019-03-19T06:02:29.267Z,1019.59
2019-03-19T06:03:29.263Z,1019.56
2019-03-19T06:04:29.204Z,1019.53
2019-03-19T06:05:29.175Z,1019.55
2019-03-19T06:06:29.150Z,1019.57
2019-03-19T06:07:29.155Z,1019.55
2019-03-19T06:08:29.094Z,1019.59
2019-03-19T06:09:29.062Z,1019.62
2019-03-19T06:10:29.049Z,1019.64
2019-03-19T06:11:29.002Z,1019.67
2019-03-19T06:12:28.972Z,1019.68
2019-03-19T06:13:28.949Z,1019.71
2019-03-19T06:14:28.920Z,1019.71
2019-03-19T06:15:28.886Z,1019.75
2019-03-19T06:16:28.859Z,1019.78
2019-03-19T06:17:29.394Z,1019.79
2019-03-19T06:18:35.066Z,1019.81
2019-03-19T06:19:28.777Z,1019.84
2019-03-19T06:20:28.743Z,1019.84
2019-03-19T06:21:28.715Z,1019.83
2019-03-19T06:22:28.689Z,1019.85
2019-03-19T06:23:28.659Z,1019.85
2019-03-19T06:24:28.637Z,1019.85
2019-03-19T06:25:28.601Z,1019.85
2019-03-19T06:26:28.572Z,1019.88
2019-03-19T06:27:28.552Z,1019.88
2019-03-19T06:28:28.514Z,1019.95
2019-03-19T06:29:28.486Z,1019.95
2019-03-19T06:30:28.457Z,1019.99
2019-03-19T06:31:28.429Z,1020.00
2019-03-19T06:32:28.407Z,1020.01
2019-03-19T06:33:28.394Z,1020.03
2019-03-19T06:34:28.342Z,1020.07
2019-03-19T06:35:28.312Z,1020.06
2019-03-19T06:36:28.287Z,1020.08
2019-03-19T06:37:28.260Z,1020.13
2019-03-19T06:38:28.230Z,1020.09
2019-03-19T06:39:28.200Z,1020.15
2019-03-19T06:40:28.173Z,1020.09
2019-03-19T06:41:28.147Z,1020.13
2019-03-19T06:42:28.117Z,1020.13
2019-03-19T06:43:28.091Z,1020.15
2019-03-19T06:44:28.059Z,1020.14
2019-03-19T06:45:28.036Z,1020.17
2019-03-19T06:46:28.003Z,1020.15
2019-03-19T06:47:27.981Z,1020.19
2019-03-19T06:48:27.950Z,1020.21
2019-03-19T06:49:27.918Z,1020.23
2019-03-19T06:50:28.282Z,1020.23
2019-03-19T06:51:27.861Z,1020.23
2019-03-19T06:52:27.848Z,1020.20
2019-03-19T06:53:27.806Z,1020.18
2019-03-19T06:54:27.781Z,1020.23
2019-03-19T06:55:27.749Z,1020.27
2019-03-19T06:56:27.720Z,1020.23
2019-03-19T06:57:27.692Z,1020.23
2019-03-19T06:58:27.665Z,1020.20
2019-03-19T06:59:27.635Z,1020.22
2019-03-19T07:00:27.606Z,1020.22
2019-03-19T07:01:27.581Z,1020.16
2019-03-19T07:02:27.559Z,1020.18
2019-03-19T07:03:27.523Z,1020.17
2019-03-19T07:04:27.497Z,1020.17
2019-03-19T07:05:27.467Z,1020.17
2019-03-19T07:06:27.439Z,1020.19
2019-03-19T07:07:27.410Z,1020.20
2019-03-19T07:08:27.382Z,1020.22
2019-03-19T07:09:27.355Z,1020.25
2019-03-19T07:10:27.330Z,1020.22
2019-03-19T07:11:27.297Z,1020.21
2019-03-19T07:12:27.273Z,1020.24
2019-03-19T07:13:27.242Z,1020.25
2019-03-19T07:14:27.214Z,1020.27
2019-03-19T07:15:27.186Z,1020.28
2019-03-19T07:16:27.169Z,1020.30
2019-03-19T07:17:27.181Z,1020.31
2019-03-19T07:18:27.404Z,1020.33
2019-03-19T07:19:27.077Z,1020.33
2019-03-19T07:20:27.048Z,1020.32
2019-03-19T07:21:27.022Z,1020.37
2019-03-19T07:22:26.991Z,1020.37
2019-03-19T07:23:26.964Z,1020.37
2019-03-19T07:24:26.937Z,1020.33
2019-03-19T07:25:26.912Z,1020.40
2019-03-19T07:26:26.884Z,1020.36
2019-03-19T07:27:26.854Z,1020.38
2019-03-19T07:28:26.826Z,1020.40
2019-03-19T07:29:26.798Z,1020.36
2019-03-19T07:30:26.769Z,1020.38
2019-03-19T07:31:31.057Z,1020.42
2019-03-19T07:32:26.717Z,1020.48
2019-03-19T07:33:26.690Z,1020.51
2019-03-19T07:34:26.660Z,1020.52
2019-03-19T07:35:26.636Z,1020.56
2019-03-19T07:36:26.609Z,1020.59
2019-03-19T07:37:26.578Z,1020.60
2019-03-19T07:38:26.552Z,1020.64
2019-03-19T07:39:26.530Z,1020.70
2019-03-19T07:40:26.499Z,1020.69
2019-03-19T07:41:26.470Z,1020.65
2019-03-19T07:42:26.443Z,1020.69
2019-03-19T07:43:26.415Z,1020.67
2019-03-19T07:44:26.401Z,1020.67
2019-03-19T07:45:26.391Z,1020.70
2019-03-19T07:46:26.334Z,1020.75
2019-03-19T07:47:26.307Z,1020.73
2019-03-19T07:48:26.281Z,1020.71
2019-03-19T07:49:26.255Z,1020.76
2019-03-19T07:50:26.229Z,1020.78
2019-03-19T07:51:26.200Z,1020.79
2019-03-19T07:52:26.174Z,1020.81
2019-03-19T07:53:26.149Z,1020.82
2019-03-19T07:54:26.122Z,1020.85
2019-03-19T07:55:26.092Z,1020.84
2019-03-19T07:56:26.066Z,1020.89
2019-03-19T07:57:26.039Z,1020.86
2019-03-19T07:58:35.785Z,1020.85
2019-03-19T07:59:25.989Z,1020.85
2019-03-19T08:00:25.959Z,1020.86
2019-03-19T08:01:25.933Z,1020.79
2019-03-19T08:02:25.906Z,1020.79
2019-03-19T08:03:25.878Z,1020.81
2019-03-19T08:04:25.855Z,1020.78
2019-03-19T08:05:32.894Z,1020.78
2019-03-19T08:06:25.801Z,1020.85
2019-03-19T08:07:25.772Z,1020.85
2019-03-19T08:08:25.762Z,1020.90
2019-03-19T08:09:25.742Z,1020.96
2019-03-19T08:10:25.695Z,1020.98
2019-03-19T08:11:25.671Z,1021.01
2019-03-19T08:12:25.645Z,1020.97
2019-03-19T08:13:25.615Z,1021.04
2019-03-19T08:14:25.588Z,1021.02
2019-03-19T08:15:25.560Z,1020.99
2019-03-19T08:16:27.655Z,1021.06
2019-03-19T08:17:25.510Z,1021.03
2019-03-19T08:18:25.482Z,1021.08
2019-03-19T08:19:25.454Z,1021.07
2019-03-19T08:20:25.428Z,1021.09
2019-03-19T08:21:25.404Z,1021.11
2019-03-19T08:22:25.376Z,1021.08
2019-03-19T08:23:25.349Z,1021.09
2019-03-19T08:24:25.322Z,1021.09
2019-03-19T08:25:25.296Z,1021.06
2019-03-19T08:26:25.270Z,1021.09
2019-03-19T08:27:25.244Z,1021.07
2019-03-19T08:28:25.217Z,1021.09
2019-03-19T08:29:25.193Z,1021.09
2019-03-19T08:30:25.334Z,1021.12
2019-03-19T08:31:25.146Z,1021.14
2019-03-19T08:32:25.114Z,1021.11
2019-03-19T08:33:25.088Z,1021.15
2019-03-19T08:34:25.062Z,1021.17
2019-03-19T08:35:25.035Z,1021.19
2019-03-19T08:36:25.010Z,1021.19
2019-03-19T08:37:24.985Z,1021.16
2019-03-19T08:38:26.544Z,1021.18
2019-03-19T08:39:24.933Z,1021.18
2019-03-19T08:40:24.906Z,1021.22
2019-03-19T08:41:24.880Z,1021.22
2019-03-19T08:42:24.857Z,1021.23
2019-03-19T08:43:24.827Z,1021.25
2019-03-19T08:44:28.022Z,1021.23
2019-03-19T08:45:24.776Z,1021.23
2019-03-19T08:46:24.751Z,1021.26
2019-03-19T08:47:24.725Z,1021.24
2019-03-19T08:48:24.697Z,1021.24
2019-03-19T08:49:24.673Z,1021.29
2019-03-19T08:50:25.369Z,1021.30
2019-03-19T08:51:24.622Z,1021.29
2019-03-19T08:52:24.597Z,1021.32
2019-03-19T08:53:24.571Z,1021.29
2019-03-19T08:54:24.550Z,1021.29
2019-03-19T08:55:24.523Z,1021.33
2019-03-19T08:56:24.501Z,1021.31
2019-03-19T08:57:24.481Z,1021.33
2019-03-19T08:58:24.444Z,1021.35
2019-03-19T08:59:24.418Z,1021.31
2019-03-19T09:00:24.416Z,1021.36
2019-03-19T09:01:24.387Z,1021.34
2019-03-19T09:02:24.345Z,1021.33
2019-03-19T09:03:24.320Z,1021.31
2019-03-19T09:04:24.293Z,1021.34
2019-03-19T09:05:24.267Z,1021.35
2019-03-19T09:06:24.242Z,1021.31
2019-03-19T09:07:24.218Z,1021.29
2019-03-19T09:08:24.191Z,1021.31
2019-03-19T09:09:24.167Z,1021.34
2019-03-19T09:10:24.143Z,1021.38
2019-03-19T09:11:24.120Z,1021.41
2019-03-19T09:12:24.096Z,1021.40
2019-03-19T09:13:24.068Z,1021.40
2019-03-19T09:14:24.042Z,1021.41
2019-03-19T09:15:24.018Z,1021.42
2019-03-19T09:16:23.995Z,1021.42
2019-03-19T09:17:23.971Z,1021.46
2019-03-19T09:18:23.943Z,1021.41
2019-03-19T09:19:23.918Z,1021.41
2019-03-19T09:20:23.937Z,1021.38
2019-03-19T09:21:23.869Z,1021.39
2019-03-19T09:22:29.542Z,1021.37
2019-03-19T09:23:23.819Z,1021.41
2019-03-19T09:24:23.799Z,1021.40
2019-03-19T09:25:23.776Z,1021.43
2019-03-19T09:26:23.746Z,1021.43
2019-03-19T09:27:23.722Z,1021.44
2019-03-19T09:28:23.696Z,1021.45
2019-03-19T09:29:25.363Z,1021.43
2019-03-19T09:30:23.656Z,1021.47
2019-03-19T09:31:23.627Z,1021.49
2019-03-19T09:32:23.601Z,1021.47
2019-03-19T09:33:23.575Z,1021.50
2019-03-19T09:34:23.552Z,1021.49
2019-03-19T09:35:23.526Z,1021.47
2019-03-19T09:36:23.503Z,1021.44
2019-03-19T09:37:23.477Z,1021.44
2019-03-19T09:38:23.454Z,1021.44
2019-03-19T09:39:23.429Z,1021.40
2019-03-19T09:40:23.404Z,1021.40
2019-03-19T09:41:23.389Z,1021.37
2019-03-19T09:42:23.355Z,1021.35
2019-03-19T09:43:23.332Z,1021.35
2019-03-19T09:44:23.309Z,1021.34
2019-03-19T09:45:23.297Z,1021.38
2019-03-19T09:46:23.271Z,1021.33
2019-03-19T09:47:23.275Z,1021.35
2019-03-19T09:48:23.210Z,1021.33
2019-03-19T09:49:23.185Z,1021.35
2019-03-19T09:50:23.161Z,1021.36
2019-03-19T09:51:23.364Z,1021.32
2019-03-19T09:52:23.111Z,1021.38
2019-03-19T09:53:23.091Z,1021.41
2019-03-19T09:54:23.071Z,1021.42
2019-03-19T09:55:23.038Z,1021.46
2019-03-19T09:56:23.016Z,1021.50
2019-03-19T09:57:22.991Z,1021.52
2019-03-19T09:58:23.031Z,1021.53
2019-03-19T09:59:27.046Z,1021.53
2019-03-19T10:00:22.940Z,1021.60
2019-03-19T10:01:22.895Z,1021.58
2019-03-19T10:02:23.883Z,1021.58
2019-03-19T10:03:22.849Z,1021.54
2019-03-19T10:04:22.827Z,1021.61
2019-03-19T10:05:22.804Z,1021.62
2019-03-19T10:06:22.826Z,1021.60
2019-03-19T10:07:22.753Z,1021.58
2019-03-19T10:08:22.726Z,1021.59
2019-03-19T10:09:22.702Z,1021.58
2019-03-19T10:10:22.694Z,1021.57
2019-03-19T10:11:22.654Z,1021.57
2019-03-19T10:12:22.642Z,1021.58
2019-03-19T10:13:22.608Z,1021.62
2019-03-19T10:14:22.582Z,1021.59
2019-03-19T10:15:22.558Z,1021.62
2019-03-19T10:16:22.534Z,1021.62
2019-03-19T10:17:22.514Z,1021.65
2019-03-19T10:18:22.492Z,1021.60
2019-03-19T10:19:22.463Z,1021.66
2019-03-19T10:20:22.438Z,1021.63
2019-03-19T10:21:22.412Z,1021.64
2019-03-19T10:22:22.389Z,1021.62
2019-03-19T10:23:22.366Z,1021.66
2019-03-19T10:24:22.339Z,1021.63
2019-03-19T10:25:22.316Z,1021.69
2019-03-19T10:26:22.294Z,1021.70
2019-03-19T10:27:22.270Z,1021.70
2019-03-19T10:28:22.266Z,1021.71
2019-03-19T10:29:22.219Z,1021.69
2019-03-19T10:30:22.206Z,1021.67
2019-03-19T10:31:22.173Z,1021.58
2019-03-19T10:32:22.155Z,1021.65
2019-03-19T10:33:22.127Z,1021.61
2019-03-19T10:34:22.101Z,1021.60
2019-03-19T10:35:22.079Z,1021.52
2019-03-19T10:36:22.052Z,1021.58
2019-03-19T10:37:22.034Z,1021.64
2019-03-19T10:38:22.034Z,1021.64
2019-03-19T10:39:21.983Z,1021.62
2019-03-19T10:40:21.995Z,1021.66
2019-03-19T10:41:21.937Z,1021.68
2019-03-19T10:42:21.917Z,1021.70
2019-03-19T10:43:21.894Z,1021.69
2019-03-19T10:44:21.874Z,1021.72
2019-03-19T10:45:21.849Z,1021.71
2019-03-19T10:46:21.827Z,1021.75
2019-03-19T10:47:21.804Z,1021.74
2019-03-19T10:48:21.783Z,1021.73
2019-03-19T10:49:21.759Z,1021.76
2019-03-19T10:50:22.570Z,1021.82
2019-03-19T10:51:21.720Z,1021.81
2019-03-19T10:52:21.695Z,1021.79
2019-03-19T10:53:21.673Z,1021.83
2019-03-19T10:54:21.651Z,1021.85
2019-03-19T10:55:21.632Z,1021.92
2019-03-19T10:56:21.610Z,1021.93
2019-03-19T10:57:21.590Z,1021.94
2019-03-19T10:58:21.571Z,1021.97
2019-03-19T10:59:21.547Z,1021.97
2019-03-19T11:00:21.525Z,1021.94
2019-03-19T11:01:21.507Z,1022.01
2019-03-19T11:02:21.490Z,1021.95
2019-03-19T11:03:21.468Z,1021.98
2019-03-19T11:04:21.447Z,1021.96
2019-03-19T11:05:21.430Z,1021.96
2019-03-19T11:06:21.409Z,1021.97
2019-03-19T11:07:21.395Z,1021.93
2019-03-19T11:08:21.374Z,1021.93
2019-03-19T11:09:21.373Z,1021.89
2019-03-19T11:10:21.339Z,1021.88
2019-03-19T11:11:21.319Z,1021.95
2019-03-19T11:12:21.302Z,1021.94
2019-03-19T11:13:21.283Z,1021.94
2019-03-19T11:14:21.266Z,1021.93
2019-03-19T11:15:21.250Z,1021.88
2019-03-19T11:16:21.228Z,1021.96
2019-03-19T11:17:21.208Z,1021.94
2019-03-19T11:18:21.194Z,1022.04
2019-03-19T11:19:21.181Z,1022.06
2019-03-19T11:20:21.152Z,1022.04
2019-03-19T11:21:21.136Z,1022.02
2019-03-19T11:22:21.115Z,1021.99
2019-03-19T11:23:21.098Z,1022.07
2019-03-19T11:24:21.080Z,1022.07
2019-03-19T11:25:21.061Z,1022.09
2019-03-19T11:26:21.048Z,1022.00
2019-03-19T11:27:21.032Z,1021.96
2019-03-19T11:28:21.009Z,1021.95
2019-03-19T11:29:20.991Z,1021.91
2019-03-19T11:30:20.980Z,1021.93
2019-03-19T11:31:20.961Z,1021.90
2019-03-19T11:32:20.943Z,1021.89
2019-03-19T11:33:20.939Z,1021.91
2019-03-19T11:34:20.912Z,1021.88
2019-03-19T11:35:20.896Z,1021.92
2019-03-19T11:36:20.878Z,1021.90
2019-03-19T11:37:20.874Z,1021.95
2019-03-19T11:38:20.850Z,1021.93
2019-03-19T11:39:20.847Z,1021.88
2019-03-19T11:40:20.818Z,1021.97
2019-03-19T11:41:20.800Z,1021.95
2019-03-19T11:42:20.786Z,1021.98
2019-03-19T11:43:20.776Z,1022.00
2019-03-19T11:44:20.757Z,1021.99
2019-03-19T11:45:20.743Z,1022.00
2019-03-19T11:46:20.731Z,1021.99
2019-03-19T11:47:20.716Z,1022.04
2019-03-19T11:48:20.702Z,1021.91
2019-03-19T11:49:20.687Z,1021.89
2019-03-19T11:50:20.679Z,1021.89
2019-03-19T11:51:20.864Z,1021.88
2019-03-19T11:52:20.646Z,1021.89
2019-03-19T11:53:20.633Z,1021.87
2019-03-19T11:54:20.615Z,1022.01
2019-03-19T11:55:20.605Z,1021.93
2019-03-19T11:56:20.584Z,1021.91
2019-03-19T11:57:20.568Z,1021.86
2019-03-19T11:58:20.554Z,1021.98
2019-03-19T11:59:20.535Z,1021.82
2019-03-19T12:00:20.520Z,1021.84
2019-03-19T12:01:20.505Z,1021.86
2019-03-19T12:02:25.843Z,1021.82
2019-03-19T12:03:20.474Z,1021.80
2019-03-19T12:04:20.456Z,1021.87
2019-03-19T12:05:20.449Z,1021.93